Mountain View, Arkansas
Current Conditions -  °F | °C
As of 8:35 AM on Thursday 18 Dec 2014 (Local Time) from KCCA Reporting Station
Haze Haze  
Wind Chill: 36°   Ceiling: 2100
Heat Index: 36°   Visibility: 4mi
Dew Point: 36°   Wind: 0mph
Humidity: 100%   Direction: NA
Pressure: 30.26"   Gusts: NA
Location:  35.87°N, 92.12°W
Report Text: KCCA 181435Z AUTO 00000KT 4SM BR SCT010 OVC021 02/02 A3026 RMK AO2
Loading
Personal Weather Stations






























Interactive Weather Map New forecast layout! Learn more

10-Day Weather Forecast

Advertisements
Track Severe Weather on mobile